createdAt,value
2023-03-29T00:01:34.825Z,98190.55
2023-03-29T00:04:07.887Z,98189.07
2023-03-29T00:06:37.944Z,98194.17
2023-03-29T00:09:10.260Z,98198.15
2023-03-29T00:11:41.437Z,98200.78
2023-03-29T00:14:13.004Z,98203.53
2023-03-29T00:16:44.649Z,98197.02
2023-03-29T00:19:16.289Z,98197.23
2023-03-29T00:21:47.478Z,98195.23
2023-03-29T00:24:18.920Z,98192.70
2023-03-29T00:26:50.390Z,98189.81
2023-03-29T00:29:21.749Z,98196.46
2023-03-29T00:31:54.306Z,98196.11
2023-03-29T00:34:30.863Z,98188.14
2023-03-29T00:37:01.974Z,98194.38
2023-03-29T00:39:33.362Z,98198.20
2023-03-29T00:42:04.621Z,98198.66
2023-03-29T00:45:04.210Z,98193.33
2023-03-29T00:47:39.033Z,98193.91
2023-03-29T00:50:15.940Z,98196.70
2023-03-29T00:52:52.364Z,98190.10
2023-03-29T00:55:25.925Z,98186.84
2023-03-29T00:58:00.921Z,98186.23
2023-03-29T01:00:36.225Z,98184.24
2023-03-29T01:03:13.797Z,98186.38
2023-03-29T01:05:48.931Z,98186.14
2023-03-29T01:08:25.875Z,98190.39
2023-03-29T01:11:04.011Z,98187.88
2023-03-29T01:13:40.632Z,98188.88
2023-03-29T01:16:14.155Z,98195.23
2023-03-29T01:18:47.053Z,98187.56
2023-03-29T01:21:24.666Z,98185.78
2023-03-29T01:24:10.849Z,98182.02
2023-03-29T01:26:51.943Z,98178.61
2023-03-29T01:29:29.091Z,98174.20
2023-03-29T01:32:05.917Z,98170.38
2023-03-29T01:34:42.332Z,98175.05
2023-03-29T01:37:18.612Z,98171.42
2023-03-29T01:39:50.135Z,98170.61
2023-03-29T01:42:31.070Z,98172.62
2023-03-29T01:45:12.750Z,98166.97
2023-03-29T01:47:54.733Z,98170.67
2023-03-29T01:50:37.230Z,98169.55
2023-03-29T01:53:12.791Z,98164.20
2023-03-29T01:55:48.669Z,98164.05
2023-03-29T01:58:23.536Z,98160.41
2023-03-29T02:00:56.338Z,98158.77
2023-03-29T02:03:31.965Z,98156.80
2023-03-29T02:06:05.033Z,98157.02
2023-03-29T02:08:37.188Z,98154.70
2023-03-29T02:11:09.162Z,98156.40
2023-03-29T02:13:38.711Z,98158.05
2023-03-29T02:16:13.566Z,98152.99
2023-03-29T02:18:48.040Z,98146.53
2023-03-29T02:21:29.320Z,98150.21
2023-03-29T02:24:04.514Z,98150.38
2023-03-29T02:26:36.202Z,98151.46
2023-03-29T02:29:07.457Z,98144.58
2023-03-29T02:31:42.937Z,98140.03
2023-03-29T02:34:22.083Z,98139.30
2023-03-29T02:36:56.758Z,98140.19
2023-03-29T02:39:31.564Z,98138.25
2023-03-29T02:42:04.139Z,98136.46
2023-03-29T02:44:39.258Z,98137.27
2023-03-29T02:47:15.335Z,98134.54
2023-03-29T02:49:46.933Z,98135.73
2023-03-29T02:52:23.349Z,98131.39
2023-03-29T02:54:55.314Z,98130.14
2023-03-29T02:57:28.755Z,98131.56
2023-03-29T03:00:01.577Z,98132.25
2023-03-29T03:02:35.843Z,98131.00
2023-03-29T03:05:07.445Z,98125.45
2023-03-29T03:07:40.695Z,98121.61
2023-03-29T03:10:13.157Z,98115.88
2023-03-29T03:12:44.263Z,98114.05
2023-03-29T03:15:15.484Z,98107.02
2023-03-29T03:17:46.773Z,98109.66
2023-03-29T03:20:18.286Z,98109.46
2023-03-29T03:22:49.918Z,98117.98
2023-03-29T03:25:22.307Z,98119.09
2023-03-29T03:27:54.550Z,98117.96
2023-03-29T03:30:25.643Z,98117.75
2023-03-29T03:32:56.689Z,98114.73
2023-03-29T03:35:28.102Z,98108.80
2023-03-29T03:37:59.154Z,98102.17
2023-03-29T03:40:30.488Z,98096.98
2023-03-29T03:43:01.523Z,98092.38
2023-03-29T03:45:32.669Z,98094.16
2023-03-29T03:48:03.877Z,98098.27
2023-03-29T03:50:35.221Z,98102.73
2023-03-29T03:53:06.249Z,98103.92
2023-03-29T03:55:37.432Z,98104.86
2023-03-29T03:58:08.500Z,98103.27
2023-03-29T04:00:39.585Z,98099.89
2023-03-29T04:03:10.866Z,98091.06
2023-03-29T04:05:44.655Z,98091.14
2023-03-29T04:08:16.202Z,98088.94
2023-03-29T04:10:54.702Z,98088.36
2023-03-29T04:13:26.525Z,98088.66
2023-03-29T04:16:00.097Z,98084.60
2023-03-29T04:18:33.908Z,98080.73
2023-03-29T04:21:05.476Z,98085.60
2023-03-29T04:23:38.452Z,98082.39
2023-03-29T04:26:10.371Z,98073.13
2023-03-29T04:28:41.640Z,98073.30
2023-03-29T04:31:14.213Z,98079.13
2023-03-29T04:33:46.877Z,98084.19
2023-03-29T04:36:17.851Z,98072.95
2023-03-29T04:38:48.967Z,98076.06
2023-03-29T04:41:20.161Z,98082.88
2023-03-29T04:43:52.285Z,98091.58
2023-03-29T04:46:25.594Z,98093.89
2023-03-29T04:48:56.698Z,98092.41
2023-03-29T04:51:27.749Z,98083.32
2023-03-29T04:53:58.859Z,98087.67
2023-03-29T04:56:30.081Z,98088.09
2023-03-29T04:59:01.336Z,98088.18
2023-03-29T05:01:32.873Z,98095.80
2023-03-29T05:04:05.129Z,98090.23
2023-03-29T05:06:36.879Z,98085.39
2023-03-29T05:09:09.005Z,98083.66
2023-03-29T05:11:40.081Z,98085.91
2023-03-29T05:14:11.291Z,98080.85
2023-03-29T05:16:42.584Z,98083.72
2023-03-29T05:19:13.685Z,98086.18
2023-03-29T05:21:45.744Z,98087.07
2023-03-29T05:24:17.231Z,98088.83
2023-03-29T05:26:51.789Z,98083.67
2023-03-29T05:29:23.527Z,98085.45
2023-03-29T05:31:54.666Z,98089.59
2023-03-29T05:34:25.797Z,98084.63
2023-03-29T05:36:57.017Z,98078.15
2023-03-29T05:39:28.056Z,98067.52
2023-03-29T05:41:59.232Z,98069.03
2023-03-29T05:44:30.420Z,98075.70
2023-03-29T05:47:01.519Z,98075.73
2023-03-29T05:49:33.041Z,98078.25
2023-03-29T05:52:04.219Z,98081.64
2023-03-29T05:54:35.382Z,98081.38
2023-03-29T05:57:07.192Z,98080.46
2023-03-29T05:59:38.567Z,98074.94
2023-03-29T06:02:08.625Z,98076.64
2023-03-29T06:04:40.055Z,98071.38
2023-03-29T06:07:12.663Z,98068.33
2023-03-29T06:09:44.782Z,98069.39
2023-03-29T06:12:15.802Z,98066.16
2023-03-29T06:14:48.280Z,98064.38
2023-03-29T06:17:19.380Z,98062.75
2023-03-29T06:19:53.112Z,98056.61
2023-03-29T06:22:24.284Z,98051.42
2023-03-29T06:24:55.372Z,98053.31
2023-03-29T06:27:26.349Z,98053.35
2023-03-29T06:29:57.492Z,98054.70
2023-03-29T06:32:29.050Z,98053.58
2023-03-29T06:34:58.565Z,98056.02
2023-03-29T06:37:30.234Z,98052.52
2023-03-29T06:40:01.462Z,98050.69
2023-03-29T06:42:33.134Z,98051.44
2023-03-29T06:45:04.460Z,98047.27
2023-03-29T06:47:34.111Z,98050.77
2023-03-29T06:50:05.250Z,98050.69
2023-03-29T06:52:36.867Z,98050.17
2023-03-29T06:55:09.933Z,98045.23
2023-03-29T06:57:41.253Z,98043.94
2023-03-29T07:00:19.332Z,98041.35
2023-03-29T07:02:50.747Z,98041.21
2023-03-29T07:05:21.991Z,98041.70
2023-03-29T07:07:56.754Z,98040.02
2023-03-29T07:10:32.527Z,98036.48
2023-03-29T07:13:04.155Z,98035.76
2023-03-29T07:15:36.123Z,98038.02
2023-03-29T07:18:08.040Z,98043.90
2023-03-29T07:20:40.606Z,98050.26
2023-03-29T07:23:12.200Z,98049.59
2023-03-29T07:25:43.246Z,98060.40
2023-03-29T07:28:14.436Z,98066.15
2023-03-29T07:30:45.766Z,98068.67
2023-03-29T07:33:15.248Z,98070.62
2023-03-29T07:35:47.901Z,98067.13
2023-03-29T07:38:19.081Z,98068.71
2023-03-29T07:40:50.089Z,98071.09
2023-03-29T07:43:21.048Z,98063.66
2023-03-29T07:45:52.866Z,98058.48
2023-03-29T07:48:24.791Z,98054.64
2023-03-29T07:50:56.002Z,98047.02
2023-03-29T07:53:29.703Z,98046.08
2023-03-29T07:56:00.874Z,98046.30
2023-03-29T07:58:32.045Z,98045.73
2023-03-29T08:01:04.113Z,98044.54
2023-03-29T08:03:35.410Z,98036.80
2023-03-29T08:06:07.143Z,98033.80
2023-03-29T08:08:38.536Z,98029.92
2023-03-29T08:11:10.160Z,98030.66
2023-03-29T08:13:42.102Z,98025.84
2023-03-29T08:16:13.228Z,98022.87
2023-03-29T08:18:42.767Z,98019.34
2023-03-29T08:21:14.822Z,98018.27
2023-03-29T08:23:46.025Z,98015.64
2023-03-29T08:26:15.977Z,98017.28
2023-03-29T08:28:46.977Z,98008.91
2023-03-29T08:31:19.302Z,98003.96
2023-03-29T08:33:48.712Z,98008.02
2023-03-29T08:36:19.865Z,98001.40
2023-03-29T08:38:51.980Z,97994.64
2023-03-29T08:41:39.312Z,97994.21
2023-03-29T08:44:26.723Z,97992.48
2023-03-29T08:47:11.634Z,97995.34
2023-03-29T08:49:48.726Z,97992.08
2023-03-29T08:52:25.355Z,97996.21
2023-03-29T08:54:59.458Z,97996.83
2023-03-29T08:57:33.019Z,97993.58
2023-03-29T09:00:07.640Z,97988.42
2023-03-29T09:02:39.471Z,97986.89
2023-03-29T09:05:23.007Z,97990.96
2023-03-29T09:07:55.380Z,97990.38
2023-03-29T09:10:34.766Z,97991.55
2023-03-29T09:13:18.104Z,97987.98
2023-03-29T09:15:58.411Z,97989.65
2023-03-29T09:18:40.213Z,97989.52
2023-03-29T09:21:19.603Z,97991.64
2023-03-29T09:24:07.742Z,97990.58
2023-03-29T09:26:47.705Z,97986.96
2023-03-29T09:29:51.552Z,97983.29
2023-03-29T09:32:28.117Z,97987.98
2023-03-29T09:35:14.329Z,97985.84
2023-03-29T09:37:46.418Z,97978.08
2023-03-29T09:40:20.234Z,97970.38
2023-03-29T09:42:54.826Z,97970.20
2023-03-29T09:45:26.189Z,97961.42
2023-03-29T09:48:01.166Z,97963.73
2023-03-29T09:50:38.053Z,97965.63
2023-03-29T09:53:10.591Z,97963.63
2023-03-29T09:55:41.883Z,97962.16
2023-03-29T09:58:18.166Z,97963.38
2023-03-29T10:00:49.879Z,97962.40
2023-03-29T10:03:26.422Z,97966.14
2023-03-29T10:06:01.695Z,97962.66
2023-03-29T10:08:39.374Z,97964.41
2023-03-29T10:11:19.836Z,97961.35
2023-03-29T10:13:55.020Z,97960.90
2023-03-29T10:16:30.502Z,97959.91
2023-03-29T10:19:07.700Z,97958.33
2023-03-29T10:21:38.490Z,97958.39
2023-03-29T10:24:11.879Z,97960.30
2023-03-29T10:26:43.217Z,97958.91
2023-03-29T10:29:15.330Z,97958.89
2023-03-29T10:31:46.454Z,97956.25
2023-03-29T10:34:19.043Z,97952.25
2023-03-29T10:36:58.727Z,97956.94
2023-03-29T10:39:34.923Z,97948.07
2023-03-29T10:42:08.575Z,97951.59
2023-03-29T10:44:41.067Z,97948.74
2023-03-29T10:47:19.766Z,97950.71
2023-03-29T10:49:56.447Z,97949.91
2023-03-29T10:52:30.598Z,97952.42
2023-03-29T10:55:01.700Z,97944.95
2023-03-29T10:57:40.899Z,97948.05
2023-03-29T11:00:18.754Z,97945.27
2023-03-29T11:03:05.928Z,97943.45
2023-03-29T11:05:48.206Z,97941.94
2023-03-29T11:08:36.668Z,97938.79
2023-03-29T11:11:18.624Z,97935.41
2023-03-29T11:13:59.828Z,97925.52
2023-03-29T11:16:38.607Z,97920.61
2023-03-29T11:19:27.244Z,97921.36
2023-03-29T11:22:06.755Z,97918.09
2023-03-29T11:24:54.244Z,97909.27
2023-03-29T11:27:36.519Z,97903.23
2023-03-29T11:30:17.393Z,97901.06
2023-03-29T11:32:58.071Z,97897.75
2023-03-29T11:35:43.862Z,97901.94
2023-03-29T11:38:26.711Z,97901.92
2023-03-29T11:41:03.545Z,97900.68
2023-03-29T11:43:38.733Z,97895.26
2023-03-29T11:46:18.348Z,97894.84
2023-03-29T11:48:54.944Z,97893.30
2023-03-29T11:51:33.939Z,97888.10
2023-03-29T11:54:09.133Z,97883.96
2023-03-29T11:56:46.073Z,97888.80
2023-03-29T11:59:27.246Z,97889.34
2023-03-29T12:02:03.380Z,97885.38
2023-03-29T12:04:39.754Z,97877.98
2023-03-29T12:07:18.944Z,97874.04
2023-03-29T12:09:54.337Z,97869.16
2023-03-29T12:12:29.999Z,97866.60
2023-03-29T12:15:09.225Z,97861.52
2023-03-29T12:17:44.657Z,97858.03
2023-03-29T12:20:23.526Z,97855.85
2023-03-29T12:22:55.186Z,97854.10
2023-03-29T12:25:32.290Z,97850.47
2023-03-29T12:28:16.949Z,97851.08
2023-03-29T12:31:01.984Z,97840.71
2023-03-29T12:34:02.757Z,97836.13
2023-03-29T12:37:01.640Z,97830.23
2023-03-29T12:39:33.986Z,97830.73
2023-03-29T12:42:15.162Z,97831.23
2023-03-29T12:44:50.789Z,97831.30
2023-03-29T12:47:25.002Z,97832.95
2023-03-29T12:49:59.096Z,97834.79
2023-03-29T12:52:34.153Z,97841.24
2023-03-29T12:55:19.284Z,97834.09
2023-03-29T12:58:02.268Z,97839.50
2023-03-29T13:00:44.820Z,97843.52
2023-03-29T13:03:37.214Z,97843.09
2023-03-29T13:06:10.726Z,97834.63
2023-03-29T13:08:44.266Z,97837.43
2023-03-29T13:11:29.281Z,97836.81
2023-03-29T13:14:01.640Z,97837.50
2023-03-29T13:16:35.119Z,97831.89
2023-03-29T13:19:22.617Z,97823.94
2023-03-29T13:22:05.967Z,97823.84
2023-03-29T13:25:04.374Z,97819.15
2023-03-29T13:27:45.748Z,97824.52
2023-03-29T13:30:25.243Z,97821.48
2023-03-29T13:33:12.660Z,97826.23
2023-03-29T13:35:52.300Z,97826.61
2023-03-29T13:38:27.743Z,97822.01
2023-03-29T13:41:04.865Z,97821.60
2023-03-29T13:43:52.998Z,97821.91
2023-03-29T13:46:26.690Z,97826.37
2023-03-29T13:49:14.354Z,97824.16
2023-03-29T13:51:49.675Z,97818.28
2023-03-29T13:54:29.562Z,97812.05
2023-03-29T13:57:11.185Z,97810.85
2023-03-29T13:59:49.443Z,97808.16
2023-03-29T14:02:30.537Z,97796.52
2023-03-29T14:05:04.316Z,97789.79
2023-03-29T14:07:39.162Z,97788.09
2023-03-29T14:10:15.022Z,97782.64
2023-03-29T14:12:46.759Z,97790.33
2023-03-29T14:15:26.839Z,97783.48
2023-03-29T14:18:00.802Z,97776.99
2023-03-29T14:20:34.093Z,97773.56
2023-03-29T14:23:15.688Z,97769.36
2023-03-29T14:25:47.349Z,97771.88
2023-03-29T14:28:23.866Z,97769.06
2023-03-29T14:30:56.119Z,97765.70
2023-03-29T14:33:34.397Z,97767.06
2023-03-29T14:36:07.196Z,97764.37
2023-03-29T14:38:39.042Z,97765.64
2023-03-29T14:41:10.207Z,97762.48
2023-03-29T14:43:41.471Z,97760.98
2023-03-29T14:46:14.733Z,97759.45
2023-03-29T14:48:46.346Z,97756.54
2023-03-29T14:51:17.700Z,97758.87
2023-03-29T14:53:49.638Z,97756.92
2023-03-29T14:56:24.320Z,97759.23
2023-03-29T14:58:57.413Z,97754.23
2023-03-29T15:01:29.476Z,97757.63
2023-03-29T15:04:06.937Z,97760.49
2023-03-29T15:06:44.042Z,97759.59
2023-03-29T15:09:19.474Z,97757.46
2023-03-29T15:11:58.796Z,97754.48
2023-03-29T15:14:33.856Z,97755.61
2023-03-29T15:17:07.167Z,97756.13
2023-03-29T15:19:38.984Z,97759.48
2023-03-29T15:22:12.063Z,97756.84
2023-03-29T15:24:50.357Z,97752.81
2023-03-29T15:27:22.048Z,97751.77
2023-03-29T15:30:03.750Z,97749.57
2023-03-29T15:32:38.867Z,97753.14
2023-03-29T15:35:22.272Z,97754.05
2023-03-29T15:37:54.421Z,97751.02
2023-03-29T15:40:28.187Z,97749.97
2023-03-29T15:42:59.295Z,97749.89
2023-03-29T15:45:28.721Z,97750.73
2023-03-29T15:48:02.043Z,97744.83
2023-03-29T15:50:34.097Z,97744.98
2023-03-29T15:53:14.619Z,97737.63
2023-03-29T15:55:49.472Z,97736.14
2023-03-29T15:58:25.584Z,97739.41
2023-03-29T16:01:03.757Z,97737.73
2023-03-29T16:03:36.203Z,97735.39
2023-03-29T16:06:11.183Z,97735.80
2023-03-29T16:08:42.190Z,97734.72
2023-03-29T16:11:13.141Z,97734.09
2023-03-29T16:13:44.240Z,97734.69
2023-03-29T16:16:15.242Z,97731.26
2023-03-29T16:18:44.716Z,97726.02
2023-03-29T16:21:19.270Z,97724.04
2023-03-29T16:23:51.484Z,97723.59
2023-03-29T16:26:23.211Z,97718.67
2023-03-29T16:28:54.234Z,97723.85
2023-03-29T16:31:27.119Z,97722.47
2023-03-29T16:33:58.434Z,97719.30
2023-03-29T16:36:30.659Z,97717.63
2023-03-29T16:39:01.928Z,97714.14
2023-03-29T16:41:33.536Z,97712.56
2023-03-29T16:44:05.053Z,97710.40
2023-03-29T16:46:36.528Z,97713.77
2023-03-29T16:49:07.997Z,97709.43
2023-03-29T16:51:40.066Z,97708.83
2023-03-29T16:54:11.069Z,97703.33
2023-03-29T16:56:42.158Z,97704.91
2023-03-29T16:59:14.553Z,97704.75
2023-03-29T17:01:44.468Z,97704.63
2023-03-29T17:04:16.050Z,97706.67
2023-03-29T17:06:47.126Z,97702.89
2023-03-29T17:09:18.880Z,97706.77
2023-03-29T17:11:50.145Z,97706.75
2023-03-29T17:14:21.825Z,97713.96
2023-03-29T17:16:53.298Z,97716.48
2023-03-29T17:19:24.508Z,97720.13
2023-03-29T17:21:55.455Z,97720.30
2023-03-29T17:24:26.705Z,97719.52
2023-03-29T17:26:58.312Z,97721.26
2023-03-29T17:29:29.627Z,97720.60
2023-03-29T17:32:01.056Z,97720.56
2023-03-29T17:34:33.041Z,97716.59
2023-03-29T17:37:04.336Z,97714.91
2023-03-29T17:39:37.640Z,97717.38
2023-03-29T17:42:08.923Z,97714.28
2023-03-29T17:44:40.154Z,97714.61
2023-03-29T17:47:11.051Z,97717.02
2023-03-29T17:49:41.991Z,97717.55
2023-03-29T17:52:13.332Z,97719.64
2023-03-29T17:54:44.539Z,97721.04
2023-03-29T17:57:14.295Z,97723.40
2023-03-29T17:59:45.436Z,97720.11
2023-03-29T18:02:17.640Z,97725.27
2023-03-29T18:04:48.920Z,97725.03
2023-03-29T18:07:20.137Z,97727.90
2023-03-29T18:09:52.551Z,97728.88
2023-03-29T18:12:25.369Z,97731.39
2023-03-29T18:14:57.298Z,97731.42
2023-03-29T18:17:28.457Z,97725.36
2023-03-29T18:19:59.727Z,97726.98
2023-03-29T18:22:34.316Z,97727.77
2023-03-29T18:25:07.336Z,97728.33
2023-03-29T18:27:38.290Z,97727.06
2023-03-29T18:30:13.232Z,97732.16
2023-03-29T18:32:44.381Z,97729.72
2023-03-29T18:35:15.555Z,97735.02
2023-03-29T18:37:47.079Z,97737.58
2023-03-29T18:40:20.517Z,97736.36
2023-03-29T18:42:51.889Z,97738.75
2023-03-29T18:45:23.651Z,97737.98
2023-03-29T18:47:55.172Z,97736.92
2023-03-29T18:50:27.253Z,97737.99
2023-03-29T18:52:58.601Z,97741.15
2023-03-29T18:55:28.820Z,97738.52
2023-03-29T18:57:59.863Z,97733.73
2023-03-29T19:00:31.064Z,97736.67
2023-03-29T19:03:03.016Z,97734.86
2023-03-29T19:05:34.539Z,97738.92
2023-03-29T19:08:07.107Z,97738.48
2023-03-29T19:10:40.002Z,97735.02
2023-03-29T19:13:11.241Z,97735.52
2023-03-29T19:15:42.416Z,97736.49
2023-03-29T19:18:13.930Z,97740.56
2023-03-29T19:20:44.966Z,97738.89
2023-03-29T19:23:16.427Z,97737.56
2023-03-29T19:25:54.229Z,97741.73
2023-03-29T19:28:26.086Z,97738.33
2023-03-29T19:30:57.850Z,97735.02
2023-03-29T19:33:29.472Z,97734.91
2023-03-29T19:36:00.772Z,97732.78
2023-03-29T19:38:32.862Z,97732.98
2023-03-29T19:41:03.713Z,97733.80
2023-03-29T19:43:34.995Z,97732.94
2023-03-29T19:46:11.042Z,97732.67
2023-03-29T19:48:42.482Z,97733.60
2023-03-29T19:51:13.986Z,97726.61
2023-03-29T19:53:43.462Z,97726.21
2023-03-29T19:56:15.906Z,97729.02
2023-03-29T19:58:48.262Z,97731.52
2023-03-29T20:01:20.853Z,97725.29
2023-03-29T20:03:52.535Z,97724.33
2023-03-29T20:06:24.183Z,97725.23
2023-03-29T20:08:56.073Z,97723.46
2023-03-29T20:11:27.175Z,97717.25
2023-03-29T20:13:58.310Z,97713.58
2023-03-29T20:16:29.756Z,97713.58
2023-03-29T20:19:02.015Z,97712.35
2023-03-29T20:21:34.331Z,97711.29
2023-03-29T20:24:05.961Z,97706.14
2023-03-29T20:26:37.121Z,97707.52
2023-03-29T20:29:08.453Z,97704.56
2023-03-29T20:31:39.700Z,97697.94
2023-03-29T20:34:11.297Z,97695.95
2023-03-29T20:36:42.316Z,97703.34
2023-03-29T20:39:17.083Z,97708.23
2023-03-29T20:41:48.797Z,97705.13
2023-03-29T20:44:22.370Z,97699.36
2023-03-29T20:47:03.410Z,97686.78
2023-03-29T20:49:38.085Z,97680.47
2023-03-29T20:52:12.895Z,97692.34
2023-03-29T20:54:45.367Z,97695.03
2023-03-29T20:57:18.906Z,97695.45
2023-03-29T20:59:50.349Z,97681.18
2023-03-29T21:02:23.805Z,97670.48
2023-03-29T21:05:00.221Z,97675.73
2023-03-29T21:07:31.887Z,97677.20
2023-03-29T21:10:03.091Z,97675.23
2023-03-29T21:12:33.977Z,97670.08
2023-03-29T21:15:05.544Z,97663.81
2023-03-29T21:17:37.274Z,97659.38
2023-03-29T21:20:12.066Z,97656.42
2023-03-29T21:22:44.333Z,97656.02
2023-03-29T21:25:16.709Z,97654.44
2023-03-29T21:27:49.257Z,97650.98
2023-03-29T21:30:20.791Z,97649.70
2023-03-29T21:32:51.882Z,97640.63
2023-03-29T21:35:21.588Z,97646.89
2023-03-29T21:37:52.735Z,97645.05
2023-03-29T21:40:23.923Z,97648.12
2023-03-29T21:42:53.395Z,97650.71
2023-03-29T21:45:24.551Z,97642.82
2023-03-29T21:47:55.787Z,97640.98
2023-03-29T21:50:27.399Z,97641.04
2023-03-29T21:52:58.549Z,97634.32
2023-03-29T21:55:29.795Z,97631.00
2023-03-29T21:58:02.064Z,97633.61
2023-03-29T22:00:33.433Z,97630.40
2023-03-29T22:03:05.319Z,97628.41
2023-03-29T22:05:37.245Z,97626.08
2023-03-29T22:08:10.860Z,97625.52
2023-03-29T22:10:42.420Z,97624.55
2023-03-29T22:13:13.744Z,97621.04
2023-03-29T22:15:45.135Z,97616.77
2023-03-29T22:18:16.256Z,97614.02
2023-03-29T22:20:47.248Z,97606.64
2023-03-29T22:23:17.000Z,97603.75
2023-03-29T22:25:48.338Z,97601.54
2023-03-29T22:28:19.659Z,97599.00
2023-03-29T22:30:51.545Z,97600.23
2023-03-29T22:33:22.554Z,97595.75
2023-03-29T22:35:53.528Z,97591.84
2023-03-29T22:38:25.084Z,97588.23
2023-03-29T22:40:54.692Z,97586.34
2023-03-29T22:43:25.816Z,97586.24
2023-03-29T22:45:56.904Z,97586.40
2023-03-29T22:48:28.146Z,97584.46
2023-03-29T22:51:00.391Z,97583.70
2023-03-29T22:53:32.048Z,97581.82
2023-03-29T22:56:04.011Z,97585.42
2023-03-29T22:58:35.256Z,97584.41
2023-03-29T23:01:07.820Z,97578.40
2023-03-29T23:03:39.552Z,97579.31
2023-03-29T23:06:11.087Z,97583.23
2023-03-29T23:08:42.318Z,97585.20
2023-03-29T23:11:13.612Z,97580.67
2023-03-29T23:13:48.836Z,97581.91
2023-03-29T23:16:20.862Z,97576.88
2023-03-29T23:18:52.346Z,97566.14
2023-03-29T23:21:22.213Z,97566.95
2023-03-29T23:23:53.420Z,97562.08
2023-03-29T23:26:23.190Z,97559.67
2023-03-29T23:28:54.617Z,97560.11
2023-03-29T23:31:25.706Z,97555.59
2023-03-29T23:33:57.088Z,97556.84
2023-03-29T23:36:31.254Z,97556.11
2023-03-29T23:39:02.476Z,97555.54
2023-03-29T23:41:32.101Z,97559.89
